sensor_id;sensor_type;location;lat;lon;timestamp;P1;durP1;ratioP1;P2;durP2;ratioP2
35969;SDS011;22448;51.298;6.430;2023-09-18T00:00:33;15.77;;;9.95;;
35969;SDS011;22448;51.298;6.430;2023-09-18T00:03:01;16.10;;;10.52;;
35969;SDS011;22448;51.298;6.430;2023-09-18T00:05:30;23.85;;;10.65;;
35969;SDS011;22448;51.298;6.430;2023-09-18T00:07:57;20.33;;;11.25;;
35969;SDS011;22448;51.298;6.430;2023-09-18T00:10:25;15.02;;;10.00;;
35969;SDS011;22448;51.298;6.430;2023-09-18T00:12:52;14.52;;;10.20;;
35969;SDS011;22448;51.298;6.430;2023-09-18T00:15:19;19.45;;;11.10;;
35969;SDS011;22448;51.298;6.430;2023-09-18T00:17:47;15.32;;;10.20;;
35969;SDS011;22448;51.298;6.430;2023-09-18T00:20:14;14.27;;;9.40;;
35969;SDS011;22448;51.298;6.430;2023-09-18T00:22:44;16.98;;;10.38;;
35969;SDS011;22448;51.298;6.430;2023-09-18T00:25:11;20.45;;;11.25;;
35969;SDS011;22448;51.298;6.430;2023-09-18T00:27:38;20.70;;;10.48;;
35969;SDS011;22448;51.298;6.430;2023-09-18T00:30:05;15.40;;;10.10;;
35969;SDS011;22448;51.298;6.430;2023-09-18T00:32:33;15.88;;;10.32;;
35969;SDS011;22448;51.298;6.430;2023-09-18T00:35:00;18.95;;;10.68;;
35969;SDS011;22448;51.298;6.430;2023-09-18T00:37:28;17.70;;;11.02;;
35969;SDS011;22448;51.298;6.430;2023-09-18T00:39:55;23.67;;;11.25;;
35969;SDS011;22448;51.298;6.430;2023-09-18T00:42:22;17.30;;;11.07;;
35969;SDS011;22448;51.298;6.430;2023-09-18T00:44:50;19.25;;;10.52;;
35969;SDS011;22448;51.298;6.430;2023-09-18T00:47:17;14.13;;;10.20;;
35969;SDS011;22448;51.298;6.430;2023-09-18T00:49:45;23.05;;;10.70;;
35969;SDS011;22448;51.298;6.430;2023-09-18T00:52:15;14.68;;;10.35;;
35969;SDS011;22448;51.298;6.430;2023-09-18T00:54:43;14.32;;;10.95;;
35969;SDS011;22448;51.298;6.430;2023-09-18T00:57:12;16.27;;;10.82;;
35969;SDS011;22448;51.298;6.430;2023-09-18T00:59:40;19.73;;;11.35;;
35969;SDS011;22448;51.298;6.430;2023-09-18T01:02:07;15.68;;;11.63;;
35969;SDS011;22448;51.298;6.430;2023-09-18T01:04:35;22.80;;;11.73;;
35969;SDS011;22448;51.298;6.430;2023-09-18T01:07:04;17.13;;;12.02;;
35969;SDS011;22448;51.298;6.430;2023-09-18T01:09:31;18.25;;;12.10;;
35969;SDS011;22448;51.298;6.430;2023-09-18T01:14:42;21.58;;;12.55;;
35969;SDS011;22448;51.298;6.430;2023-09-18T01:17:11;21.30;;;12.50;;
35969;SDS011;22448;51.298;6.430;2023-09-18T01:19:41;18.58;;;12.23;;
35969;SDS011;22448;51.298;6.430;2023-09-18T01:22:11;20.52;;;12.52;;
35969;SDS011;22448;51.298;6.430;2023-09-18T01:24:44;22.25;;;12.80;;
35969;SDS011;22448;51.298;6.430;2023-09-18T01:27:14;22.80;;;11.77;;
35969;SDS011;22448;51.298;6.430;2023-09-18T01:29:46;18.60;;;11.70;;
35969;SDS011;22448;51.298;6.430;2023-09-18T01:32:14;16.98;;;9.95;;
35969;SDS011;22448;51.298;6.430;2023-09-18T01:34:48;17.98;;;10.55;;
35969;SDS011;22448;51.298;6.430;2023-09-18T01:37:19;23.10;;;10.55;;
35969;SDS011;22448;51.298;6.430;2023-09-18T01:39:48;11.55;;;9.00;;
35969;SDS011;22448;51.298;6.430;2023-09-18T01:42:17;18.88;;;10.25;;
35969;SDS011;22448;51.298;6.430;2023-09-18T01:44:44;16.23;;;10.40;;
35969;SDS011;22448;51.298;6.430;2023-09-18T01:47:17;14.18;;;10.30;;
35969;SDS011;22448;51.298;6.430;2023-09-18T01:49:46;19.13;;;10.90;;
35969;SDS011;22448;51.298;6.430;2023-09-18T01:52:14;18.15;;;10.50;;
35969;SDS011;22448;51.298;6.430;2023-09-18T01:54:41;23.70;;;10.98;;
35969;SDS011;22448;51.298;6.430;2023-09-18T01:57:08;19.50;;;10.65;;
35969;SDS011;22448;51.298;6.430;2023-09-18T01:59:35;24.15;;;11.00;;
35969;SDS011;22448;51.298;6.430;2023-09-18T02:02:04;20.40;;;10.48;;
35969;SDS011;22448;51.298;6.430;2023-09-18T02:04:34;20.15;;;10.98;;
35969;SDS011;22448;51.298;6.430;2023-09-18T02:07:19;21.33;;;11.80;;
35969;SDS011;22448;51.298;6.430;2023-09-18T02:09:46;20.02;;;10.75;;
35969;SDS011;22448;51.298;6.430;2023-09-18T02:12:13;16.35;;;10.52;;
35969;SDS011;22448;51.298;6.430;2023-09-18T02:14:44;16.60;;;9.90;;
35969;SDS011;22448;51.298;6.430;2023-09-18T02:17:11;16.48;;;10.30;;
35969;SDS011;22448;51.298;6.430;2023-09-18T02:19:39;16.33;;;10.30;;
35969;SDS011;22448;51.298;6.430;2023-09-18T02:22:06;19.10;;;11.13;;
35969;SDS011;22448;51.298;6.430;2023-09-18T02:24:34;17.52;;;11.27;;
35969;SDS011;22448;51.298;6.430;2023-09-18T02:27:03;17.15;;;10.00;;
35969;SDS011;22448;51.298;6.430;2023-09-18T02:29:31;14.30;;;10.15;;
35969;SDS011;22448;51.298;6.430;2023-09-18T02:31:59;19.55;;;10.02;;
35969;SDS011;22448;51.298;6.430;2023-09-18T02:34:26;17.58;;;9.93;;
35969;SDS011;22448;51.298;6.430;2023-09-18T02:36:53;19.27;;;9.65;;
35969;SDS011;22448;51.298;6.430;2023-09-18T02:39:20;16.23;;;9.55;;
35969;SDS011;22448;51.298;6.430;2023-09-18T02:41:49;16.17;;;9.70;;
35969;SDS011;22448;51.298;6.430;2023-09-18T02:44:16;19.23;;;9.38;;
35969;SDS011;22448;51.298;6.430;2023-09-18T02:46:43;17.48;;;9.95;;
35969;SDS011;22448;51.298;6.430;2023-09-18T02:49:11;17.55;;;9.88;;
35969;SDS011;22448;51.298;6.430;2023-09-18T02:51:38;21.65;;;9.85;;
35969;SDS011;22448;51.298;6.430;2023-09-18T02:54:05;13.75;;;9.52;;
35969;SDS011;22448;51.298;6.430;2023-09-18T02:56:33;19.75;;;9.63;;
35969;SDS011;22448;51.298;6.430;2023-09-18T02:59:00;16.45;;;9.18;;
35969;SDS011;22448;51.298;6.430;2023-09-18T03:01:27;21.95;;;10.20;;
35969;SDS011;22448;51.298;6.430;2023-09-18T03:03:54;17.65;;;9.30;;
35969;SDS011;22448;51.298;6.430;2023-09-18T03:06:21;18.52;;;9.43;;
35969;SDS011;22448;51.298;6.430;2023-09-18T03:08:48;20.85;;;9.05;;
35969;SDS011;22448;51.298;6.430;2023-09-18T03:11:16;17.40;;;8.68;;
35969;SDS011;22448;51.298;6.430;2023-09-18T03:13:44;16.13;;;9.35;;
35969;SDS011;22448;51.298;6.430;2023-09-18T03:16:17;22.00;;;10.02;;
35969;SDS011;22448;51.298;6.430;2023-09-18T03:18:45;18.73;;;10.20;;
35969;SDS011;22448;51.298;6.430;2023-09-18T03:21:12;25.00;;;10.38;;
35969;SDS011;22448;51.298;6.430;2023-09-18T03:23:39;16.73;;;9.85;;
35969;SDS011;22448;51.298;6.430;2023-09-18T03:26:07;22.90;;;10.10;;
35969;SDS011;22448;51.298;6.430;2023-09-18T03:28:34;22.60;;;10.20;;
35969;SDS011;22448;51.298;6.430;2023-09-18T03:31:01;17.08;;;9.00;;
35969;SDS011;22448;51.298;6.430;2023-09-18T03:33:28;20.45;;;9.23;;
35969;SDS011;22448;51.298;6.430;2023-09-18T03:35:55;17.40;;;9.32;;
35969;SDS011;22448;51.298;6.430;2023-09-18T03:38:27;17.80;;;8.00;;
35969;SDS011;22448;51.298;6.430;2023-09-18T03:40:58;16.40;;;8.20;;
35969;SDS011;22448;51.298;6.430;2023-09-18T03:43:27;19.38;;;8.45;;
35969;SDS011;22448;51.298;6.430;2023-09-18T03:45:54;20.40;;;8.00;;
35969;SDS011;22448;51.298;6.430;2023-09-18T03:48:22;15.75;;;7.75;;
35969;SDS011;22448;51.298;6.430;2023-09-18T03:50:49;16.58;;;7.90;;
35969;SDS011;22448;51.298;6.430;2023-09-18T03:53:16;23.17;;;8.80;;
35969;SDS011;22448;51.298;6.430;2023-09-18T03:55:44;20.00;;;9.27;;
35969;SDS011;22448;51.298;6.430;2023-09-18T03:58:11;24.17;;;9.30;;
35969;SDS011;22448;51.298;6.430;2023-09-18T04:00:39;22.35;;;9.00;;
35969;SDS011;22448;51.298;6.430;2023-09-18T04:03:06;20.50;;;9.85;;
35969;SDS011;22448;51.298;6.430;2023-09-18T04:05:33;15.35;;;8.77;;
35969;SDS011;22448;51.298;6.430;2023-09-18T04:08:01;22.67;;;8.98;;
35969;SDS011;22448;51.298;6.430;2023-09-18T04:10:28;15.15;;;8.15;;
35969;SDS011;22448;51.298;6.430;2023-09-18T04:12:55;29.63;;;9.80;;
35969;SDS011;22448;51.298;6.430;2023-09-18T04:15:23;21.35;;;10.05;;
35969;SDS011;22448;51.298;6.430;2023-09-18T04:17:50;17.42;;;9.68;;
35969;SDS011;22448;51.298;6.430;2023-09-18T04:20:17;21.42;;;10.45;;
35969;SDS011;22448;51.298;6.430;2023-09-18T04:22:46;25.45;;;10.38;;
35969;SDS011;22448;51.298;6.430;2023-09-18T04:25:17;20.50;;;9.80;;
35969;SDS011;22448;51.298;6.430;2023-09-18T04:27:46;17.15;;;9.35;;
35969;SDS011;22448;51.298;6.430;2023-09-18T04:30:16;17.80;;;8.95;;
35969;SDS011;22448;51.298;6.430;2023-09-18T04:32:47;18.48;;;8.82;;
35969;SDS011;22448;51.298;6.430;2023-09-18T04:35:14;18.05;;;9.13;;
35969;SDS011;22448;51.298;6.430;2023-09-18T04:37:41;18.27;;;7.88;;
35969;SDS011;22448;51.298;6.430;2023-09-18T04:40:09;19.60;;;8.77;;
35969;SDS011;22448;51.298;6.430;2023-09-18T04:42:38;18.08;;;8.90;;
35969;SDS011;22448;51.298;6.430;2023-09-18T04:45:06;19.58;;;8.88;;
35969;SDS011;22448;51.298;6.430;2023-09-18T04:47:34;16.17;;;8.55;;
35969;SDS011;22448;51.298;6.430;2023-09-18T04:50:02;17.05;;;7.82;;
35969;SDS011;22448;51.298;6.430;2023-09-18T04:52:37;24.77;;;8.98;;
35969;SDS011;22448;51.298;6.430;2023-09-18T04:55:04;18.33;;;7.45;;
35969;SDS011;22448;51.298;6.430;2023-09-18T04:57:35;16.30;;;7.45;;
35969;SDS011;22448;51.298;6.430;2023-09-18T05:00:02;15.20;;;7.40;;
35969;SDS011;22448;51.298;6.430;2023-09-18T05:02:44;18.60;;;7.40;;
35969;SDS011;22448;51.298;6.430;2023-09-18T05:05:12;15.18;;;7.35;;
35969;SDS011;22448;51.298;6.430;2023-09-18T05:07:40;26.17;;;7.85;;
35969;SDS011;22448;51.298;6.430;2023-09-18T05:10:08;18.85;;;8.15;;
35969;SDS011;22448;51.298;6.430;2023-09-18T05:12:38;14.55;;;7.25;;
35969;SDS011;22448;51.298;6.430;2023-09-18T05:15:06;18.30;;;7.30;;
35969;SDS011;22448;51.298;6.430;2023-09-18T05:17:47;16.80;;;6.80;;
35969;SDS011;22448;51.298;6.430;2023-09-18T05:20:18;14.85;;;7.47;;
35969;SDS011;22448;51.298;6.430;2023-09-18T05:22:45;12.48;;;6.82;;
35969;SDS011;22448;51.298;6.430;2023-09-18T05:25:13;14.07;;;6.18;;
35969;SDS011;22448;51.298;6.430;2023-09-18T05:27:43;24.23;;;7.25;;
35969;SDS011;22448;51.298;6.430;2023-09-18T05:30:11;27.33;;;6.97;;
35969;SDS011;22448;51.298;6.430;2023-09-18T05:32:40;15.77;;;6.22;;
35969;SDS011;22448;51.298;6.430;2023-09-18T05:35:08;18.02;;;5.88;;
35969;SDS011;22448;51.298;6.430;2023-09-18T05:37:37;15.52;;;5.90;;
35969;SDS011;22448;51.298;6.430;2023-09-18T05:40:06;20.13;;;6.07;;
35969;SDS011;22448;51.298;6.430;2023-09-18T05:42:41;14.70;;;5.73;;
35969;SDS011;22448;51.298;6.430;2023-09-18T05:45:10;13.70;;;5.35;;
35969;SDS011;22448;51.298;6.430;2023-09-18T05:47:41;12.73;;;4.95;;
35969;SDS011;22448;51.298;6.430;2023-09-18T05:50:10;14.32;;;4.88;;
35969;SDS011;22448;51.298;6.430;2023-09-18T05:52:45;14.43;;;4.55;;
35969;SDS011;22448;51.298;6.430;2023-09-18T05:55:14;11.30;;;5.27;;
35969;SDS011;22448;51.298;6.430;2023-09-18T05:57:41;11.55;;;4.78;;
35969;SDS011;22448;51.298;6.430;2023-09-18T06:00:09;10.75;;;3.90;;
35969;SDS011;22448;51.298;6.430;2023-09-18T06:02:42;16.60;;;4.30;;
35969;SDS011;22448;51.298;6.430;2023-09-18T06:05:10;14.93;;;4.63;;
35969;SDS011;22448;51.298;6.430;2023-09-18T06:07:38;11.80;;;3.70;;
35969;SDS011;22448;51.298;6.430;2023-09-18T06:10:05;6.57;;;3.00;;
35969;SDS011;22448;51.298;6.430;2023-09-18T06:12:33;10.10;;;3.20;;
35969;SDS011;22448;51.298;6.430;2023-09-18T06:15:00;7.55;;;2.97;;
35969;SDS011;22448;51.298;6.430;2023-09-18T06:17:27;15.30;;;2.60;;
35969;SDS011;22448;51.298;6.430;2023-09-18T06:19:54;7.38;;;2.75;;
35969;SDS011;22448;51.298;6.430;2023-09-18T06:22:22;7.82;;;3.00;;
35969;SDS011;22448;51.298;6.430;2023-09-18T06:24:49;8.88;;;2.90;;
35969;SDS011;22448;51.298;6.430;2023-09-18T06:27:16;9.68;;;3.47;;
35969;SDS011;22448;51.298;6.430;2023-09-18T06:29:45;8.38;;;2.60;;
35969;SDS011;22448;51.298;6.430;2023-09-18T06:32:12;12.38;;;2.83;;
35969;SDS011;22448;51.298;6.430;2023-09-18T06:34:39;5.18;;;2.67;;
35969;SDS011;22448;51.298;6.430;2023-09-18T06:37:10;6.47;;;2.30;;
35969;SDS011;22448;51.298;6.430;2023-09-18T06:39:39;7.05;;;2.13;;
35969;SDS011;22448;51.298;6.430;2023-09-18T06:42:06;6.07;;;2.30;;
35969;SDS011;22448;51.298;6.430;2023-09-18T06:44:33;8.93;;;2.33;;
35969;SDS011;22448;51.298;6.430;2023-09-18T06:47:00;9.20;;;2.78;;
35969;SDS011;22448;51.298;6.430;2023-09-18T06:49:27;8.73;;;3.08;;
35969;SDS011;22448;51.298;6.430;2023-09-18T06:51:55;7.43;;;2.60;;
35969;SDS011;22448;51.298;6.430;2023-09-18T06:54:22;8.50;;;2.25;;
35969;SDS011;22448;51.298;6.430;2023-09-18T06:56:49;7.07;;;2.60;;
35969;SDS011;22448;51.298;6.430;2023-09-18T06:59:16;6.60;;;2.00;;
35969;SDS011;22448;51.298;6.430;2023-09-18T07:01:43;9.68;;;2.33;;
35969;SDS011;22448;51.298;6.430;2023-09-18T07:04:11;10.50;;;2.25;;
35969;SDS011;22448;51.298;6.430;2023-09-18T07:06:38;9.75;;;2.10;;
35969;SDS011;22448;51.298;6.430;2023-09-18T07:09:05;5.25;;;2.10;;
35969;SDS011;22448;51.298;6.430;2023-09-18T07:11:33;6.63;;;2.28;;
35969;SDS011;22448;51.298;6.430;2023-09-18T07:14:01;6.50;;;2.03;;
35969;SDS011;22448;51.298;6.430;2023-09-18T07:16:32;9.02;;;2.38;;
35969;SDS011;22448;51.298;6.430;2023-09-18T07:19:00;11.40;;;2.28;;
35969;SDS011;22448;51.298;6.430;2023-09-18T07:21:31;6.43;;;2.38;;
35969;SDS011;22448;51.298;6.430;2023-09-18T07:23:58;4.60;;;1.80;;
35969;SDS011;22448;51.298;6.430;2023-09-18T07:26:25;5.18;;;2.15;;
35969;SDS011;22448;51.298;6.430;2023-09-18T07:28:52;5.82;;;2.30;;
35969;SDS011;22448;51.298;6.430;2023-09-18T07:31:20;6.88;;;2.30;;
35969;SDS011;22448;51.298;6.430;2023-09-18T07:33:47;7.70;;;2.15;;
35969;SDS011;22448;51.298;6.430;2023-09-18T07:36:15;9.52;;;2.28;;
35969;SDS011;22448;51.298;6.430;2023-09-18T07:38:42;5.18;;;2.20;;
35969;SDS011;22448;51.298;6.430;2023-09-18T07:41:09;10.15;;;2.10;;
35969;SDS011;22448;51.298;6.430;2023-09-18T07:43:37;9.38;;;2.38;;
35969;SDS011;22448;51.298;6.430;2023-09-18T07:46:05;6.30;;;1.88;;
35969;SDS011;22448;51.298;6.430;2023-09-18T07:48:32;5.20;;;2.33;;
35969;SDS011;22448;51.298;6.430;2023-09-18T07:51:00;9.95;;;2.10;;
35969;SDS011;22448;51.298;6.430;2023-09-18T07:53:27;6.68;;;1.83;;
35969;SDS011;22448;51.298;6.430;2023-09-18T07:55:55;6.93;;;2.08;;
35969;SDS011;22448;51.298;6.430;2023-09-18T07:58:24;3.45;;;1.73;;
35969;SDS011;22448;51.298;6.430;2023-09-18T08:00:57;4.53;;;1.63;;
35969;SDS011;22448;51.298;6.430;2023-09-18T08:03:24;4.63;;;2.00;;
35969;SDS011;22448;51.298;6.430;2023-09-18T08:05:55;6.80;;;2.42;;
35969;SDS011;22448;51.298;6.430;2023-09-18T08:08:23;4.65;;;2.33;;
35969;SDS011;22448;51.298;6.430;2023-09-18T08:10:51;5.68;;;1.88;;
35969;SDS011;22448;51.298;6.430;2023-09-18T08:13:19;5.72;;;1.80;;
35969;SDS011;22448;51.298;6.430;2023-09-18T08:15:46;7.90;;;3.00;;
35969;SDS011;22448;51.298;6.430;2023-09-18T08:18:13;4.63;;;2.22;;
35969;SDS011;22448;51.298;6.430;2023-09-18T08:20:41;4.78;;;2.03;;
35969;SDS011;22448;51.298;6.430;2023-09-18T08:23:10;4.60;;;1.55;;
35969;SDS011;22448;51.298;6.430;2023-09-18T08:25:37;6.00;;;2.33;;
35969;SDS011;22448;51.298;6.430;2023-09-18T08:28:07;7.03;;;2.03;;
35969;SDS011;22448;51.298;6.430;2023-09-18T08:30:35;8.40;;;2.13;;
35969;SDS011;22448;51.298;6.430;2023-09-18T08:33:03;7.03;;;1.50;;
35969;SDS011;22448;51.298;6.430;2023-09-18T08:35:31;6.38;;;2.17;;
35969;SDS011;22448;51.298;6.430;2023-09-18T08:37:59;4.10;;;1.60;;
35969;SDS011;22448;51.298;6.430;2023-09-18T08:40:26;4.20;;;1.80;;
35969;SDS011;22448;51.298;6.430;2023-09-18T08:42:54;4.95;;;1.50;;
35969;SDS011;22448;51.298;6.430;2023-09-18T08:45:23;4.25;;;1.40;;
35969;SDS011;22448;51.298;6.430;2023-09-18T08:47:58;3.97;;;2.03;;
35969;SDS011;22448;51.298;6.430;2023-09-18T08:50:27;9.15;;;1.75;;
35969;SDS011;22448;51.298;6.430;2023-09-18T08:52:55;3.83;;;1.83;;
35969;SDS011;22448;51.298;6.430;2023-09-18T08:55:23;5.15;;;1.80;;
35969;SDS011;22448;51.298;6.430;2023-09-18T08:57:51;6.18;;;2.15;;
35969;SDS011;22448;51.298;6.430;2023-09-18T09:00:19;6.78;;;1.83;;
35969;SDS011;22448;51.298;6.430;2023-09-18T09:02:47;7.03;;;1.80;;
35969;SDS011;22448;51.298;6.430;2023-09-18T09:05:17;2.13;;;1.40;;
35969;SDS011;22448;51.298;6.430;2023-09-18T09:07:45;4.97;;;1.85;;
35969;SDS011;22448;51.298;6.430;2023-09-18T09:10:12;7.10;;;1.73;;
35969;SDS011;22448;51.298;6.430;2023-09-18T09:12:49;7.05;;;1.80;;
35969;SDS011;22448;51.298;6.430;2023-09-18T09:15:28;6.75;;;1.60;;
35969;SDS011;22448;51.298;6.430;2023-09-18T09:18:05;7.57;;;3.17;;
35969;SDS011;22448;51.298;6.430;2023-09-18T09:20:34;7.35;;;2.67;;
35969;SDS011;22448;51.298;6.430;2023-09-18T09:23:03;8.85;;;2.22;;
35969;SDS011;22448;51.298;6.430;2023-09-18T09:25:31;6.25;;;1.90;;
35969;SDS011;22448;51.298;6.430;2023-09-18T09:28:00;10.00;;;1.65;;
35969;SDS011;22448;51.298;6.430;2023-09-18T09:30:33;5.45;;;2.00;;
35969;SDS011;22448;51.298;6.430;2023-09-18T09:33:02;8.20;;;1.92;;
35969;SDS011;22448;51.298;6.430;2023-09-18T09:35:32;5.40;;;1.73;;
35969;SDS011;22448;51.298;6.430;2023-09-18T09:38:07;3.83;;;1.52;;
35969;SDS011;22448;51.298;6.430;2023-09-18T09:40:38;6.93;;;1.60;;
35969;SDS011;22448;51.298;6.430;2023-09-18T09:43:07;4.38;;;1.88;;
35969;SDS011;22448;51.298;6.430;2023-09-18T09:45:35;6.13;;;1.88;;
35969;SDS011;22448;51.298;6.430;2023-09-18T09:48:03;2.92;;;1.63;;
35969;SDS011;22448;51.298;6.430;2023-09-18T09:50:34;5.80;;;2.10;;
35969;SDS011;22448;51.298;6.430;2023-09-18T09:53:13;4.78;;;1.77;;
35969;SDS011;22448;51.298;6.430;2023-09-18T09:55:40;3.60;;;1.75;;
35969;SDS011;22448;51.298;6.430;2023-09-18T09:58:08;7.13;;;1.58;;
35969;SDS011;22448;51.298;6.430;2023-09-18T10:00:45;6.70;;;1.85;;
35969;SDS011;22448;51.298;6.430;2023-09-18T10:03:17;5.95;;;1.65;;
35969;SDS011;22448;51.298;6.430;2023-09-18T10:05:46;8.40;;;1.75;;
35969;SDS011;22448;51.298;6.430;2023-09-18T10:08:17;4.80;;;1.50;;
35969;SDS011;22448;51.298;6.430;2023-09-18T10:16:18;5.55;;;2.10;;
35969;SDS011;22448;51.298;6.430;2023-09-18T10:19:07;9.52;;;1.85;;
35969;SDS011;22448;51.298;6.430;2023-09-18T10:24:33;5.40;;;1.60;;
35969;SDS011;22448;51.298;6.430;2023-09-18T10:27:03;5.32;;;1.70;;
35969;SDS011;22448;51.298;6.430;2023-09-18T10:29:33;4.88;;;1.90;;
35969;SDS011;22448;51.298;6.430;2023-09-18T10:32:05;9.07;;;2.03;;
35969;SDS011;22448;51.298;6.430;2023-09-18T10:34:35;1.95;;;1.50;;
35969;SDS011;22448;51.298;6.430;2023-09-18T10:37:03;7.38;;;2.22;;
35969;SDS011;22448;51.298;6.430;2023-09-18T10:39:37;5.65;;;1.88;;
35969;SDS011;22448;51.298;6.430;2023-09-18T10:42:06;7.75;;;1.77;;
35969;SDS011;22448;51.298;6.430;2023-09-18T10:44:36;4.68;;;2.10;;
35969;SDS011;22448;51.298;6.430;2023-09-18T10:47:07;4.95;;;1.33;;
35969;SDS011;22448;51.298;6.430;2023-09-18T10:49:36;3.28;;;1.75;;
35969;SDS011;22448;51.298;6.430;2023-09-18T10:52:04;9.10;;;1.95;;
35969;SDS011;22448;51.298;6.430;2023-09-18T10:54:31;9.25;;;2.63;;
35969;SDS011;22448;51.298;6.430;2023-09-18T10:56:59;6.78;;;1.88;;
35969;SDS011;22448;51.298;6.430;2023-09-18T10:59:28;4.45;;;1.90;;
35969;SDS011;22448;51.298;6.430;2023-09-18T11:02:02;4.32;;;1.95;;
35969;SDS011;22448;51.298;6.430;2023-09-18T11:04:34;6.70;;;1.60;;
35969;SDS011;22448;51.298;6.430;2023-09-18T11:07:03;4.72;;;1.95;;
35969;SDS011;22448;51.298;6.430;2023-09-18T11:09:32;3.67;;;1.95;;
35969;SDS011;22448;51.298;6.430;2023-09-18T11:12:11;8.27;;;2.03;;
35969;SDS011;22448;51.298;6.430;2023-09-18T11:18:01;5.75;;;1.83;;
35969;SDS011;22448;51.298;6.430;2023-09-18T11:20:34;8.55;;;2.15;;
35969;SDS011;22448;51.298;6.430;2023-09-18T11:23:15;6.38;;;1.90;;
35969;SDS011;22448;51.298;6.430;2023-09-18T11:25:45;4.35;;;2.00;;
35969;SDS011;22448;51.298;6.430;2023-09-18T11:28:23;5.35;;;2.20;;
35969;SDS011;22448;51.298;6.430;2023-09-18T11:30:53;10.30;;;2.50;;
35969;SDS011;22448;51.298;6.430;2023-09-18T11:33:31;5.68;;;1.83;;
35969;SDS011;22448;51.298;6.430;2023-09-18T11:36:04;9.55;;;1.92;;
35969;SDS011;22448;51.298;6.430;2023-09-18T11:38:34;7.25;;;2.15;;
35969;SDS011;22448;51.298;6.430;2023-09-18T11:41:26;4.35;;;1.75;;
35969;SDS011;22448;51.298;6.430;2023-09-18T11:47:13;7.65;;;2.33;;
35969;SDS011;22448;51.298;6.430;2023-09-18T11:49:47;5.13;;;1.90;;
35969;SDS011;22448;51.298;6.430;2023-09-18T11:52:24;5.55;;;1.85;;
35969;SDS011;22448;51.298;6.430;2023-09-18T11:57:24;4.95;;;1.90;;
35969;SDS011;22448;51.298;6.430;2023-09-18T11:59:51;6.60;;;1.70;;
35969;SDS011;22448;51.298;6.430;2023-09-18T12:02:29;8.60;;;1.80;;
35969;SDS011;22448;51.298;6.430;2023-09-18T12:05:13;4.20;;;1.80;;
35969;SDS011;22448;51.298;6.430;2023-09-18T12:07:42;7.07;;;1.80;;
35969;SDS011;22448;51.298;6.430;2023-09-18T12:10:12;7.85;;;2.20;;
35969;SDS011;22448;51.298;6.430;2023-09-18T12:12:43;4.32;;;1.90;;
35969;SDS011;22448;51.298;6.430;2023-09-18T12:15:11;7.28;;;2.00;;
35969;SDS011;22448;51.298;6.430;2023-09-18T12:17:39;3.72;;;1.90;;
35969;SDS011;22448;51.298;6.430;2023-09-18T12:20:06;8.50;;;2.05;;
35969;SDS011;22448;51.298;6.430;2023-09-18T12:22:33;2.70;;;1.80;;
35969;SDS011;22448;51.298;6.430;2023-09-18T12:25:10;4.55;;;1.80;;
35969;SDS011;22448;51.298;6.430;2023-09-18T12:27:42;5.97;;;1.80;;
35969;SDS011;22448;51.298;6.430;2023-09-18T12:30:09;5.28;;;1.85;;
35969;SDS011;22448;51.298;6.430;2023-09-18T12:32:38;7.55;;;1.65;;
35969;SDS011;22448;51.298;6.430;2023-09-18T12:35:06;3.85;;;1.70;;
35969;SDS011;22448;51.298;6.430;2023-09-18T12:37:34;4.50;;;1.63;;
35969;SDS011;22448;51.298;6.430;2023-09-18T12:40:06;5.05;;;1.95;;
35969;SDS011;22448;51.298;6.430;2023-09-18T12:42:37;4.68;;;1.90;;
35969;SDS011;22448;51.298;6.430;2023-09-18T12:45:07;6.18;;;1.80;;
35969;SDS011;22448;51.298;6.430;2023-09-18T12:47:35;5.68;;;1.70;;
35969;SDS011;22448;51.298;6.430;2023-09-18T12:50:06;5.00;;;1.88;;
35969;SDS011;22448;51.298;6.430;2023-09-18T12:52:33;4.43;;;1.92;;
35969;SDS011;22448;51.298;6.430;2023-09-18T12:55:00;2.88;;;1.55;;
35969;SDS011;22448;51.298;6.430;2023-09-18T12:57:30;4.32;;;2.00;;
35969;SDS011;22448;51.298;6.430;2023-09-18T12:59:58;3.90;;;1.60;;
35969;SDS011;22448;51.298;6.430;2023-09-18T13:02:25;5.82;;;1.70;;
35969;SDS011;22448;51.298;6.430;2023-09-18T13:04:56;5.45;;;2.20;;
35969;SDS011;22448;51.298;6.430;2023-09-18T13:07:25;3.83;;;1.67;;
35969;SDS011;22448;51.298;6.430;2023-09-18T13:10:00;3.97;;;1.75;;
35969;SDS011;22448;51.298;6.430;2023-09-18T13:15:13;5.70;;;2.40;;
35969;SDS011;22448;51.298;6.430;2023-09-18T13:17:44;8.63;;;2.40;;
35969;SDS011;22448;51.298;6.430;2023-09-18T13:20:22;9.13;;;2.38;;
35969;SDS011;22448;51.298;6.430;2023-09-18T13:22:56;3.78;;;1.90;;
35969;SDS011;22448;51.298;6.430;2023-09-18T13:25:31;11.00;;;1.88;;
35969;SDS011;22448;51.298;6.430;2023-09-18T13:28:05;10.30;;;1.90;;
35969;SDS011;22448;51.298;6.430;2023-09-18T13:30:35;4.80;;;1.70;;
35969;SDS011;22448;51.298;6.430;2023-09-18T13:33:10;7.20;;;2.10;;
35969;SDS011;22448;51.298;6.430;2023-09-18T13:35:40;2.75;;;1.65;;
35969;SDS011;22448;51.298;6.430;2023-09-18T13:38:08;6.78;;;2.10;;
35969;SDS011;22448;51.298;6.430;2023-09-18T13:40:38;3.75;;;1.58;;
35969;SDS011;22448;51.298;6.430;2023-09-18T13:43:06;6.40;;;1.60;;
35969;SDS011;22448;51.298;6.430;2023-09-18T13:45:35;8.00;;;1.95;;
35969;SDS011;22448;51.298;6.430;2023-09-18T13:48:03;7.18;;;1.73;;
35969;SDS011;22448;51.298;6.430;2023-09-18T13:50:32;6.97;;;1.88;;
35969;SDS011;22448;51.298;6.430;2023-09-18T13:53:00;6.07;;;2.08;;
35969;SDS011;22448;51.298;6.430;2023-09-18T13:55:31;4.00;;;1.25;;
35969;SDS011;22448;51.298;6.430;2023-09-18T13:57:58;7.30;;;1.70;;
35969;SDS011;22448;51.298;6.430;2023-09-18T14:00:26;7.03;;;2.05;;
35969;SDS011;22448;51.298;6.430;2023-09-18T14:02:53;6.32;;;1.88;;
35969;SDS011;22448;51.298;6.430;2023-09-18T14:05:21;5.45;;;1.60;;
35969;SDS011;22448;51.298;6.430;2023-09-18T14:07:48;6.13;;;2.53;;
35969;SDS011;22448;51.298;6.430;2023-09-18T14:10:16;4.78;;;1.90;;
35969;SDS011;22448;51.298;6.430;2023-09-18T14:12:47;2.90;;;1.13;;
35969;SDS011;22448;51.298;6.430;2023-09-18T14:15:14;2.60;;;1.50;;
35969;SDS011;22448;51.298;6.430;2023-09-18T14:17:41;8.98;;;1.85;;
35969;SDS011;22448;51.298;6.430;2023-09-18T14:20:09;3.20;;;1.55;;
35969;SDS011;22448;51.298;6.430;2023-09-18T14:22:37;5.82;;;1.90;;
35969;SDS011;22448;51.298;6.430;2023-09-18T14:25:04;4.05;;;1.70;;
35969;SDS011;22448;51.298;6.430;2023-09-18T14:27:33;3.50;;;2.00;;
35969;SDS011;22448;51.298;6.430;2023-09-18T14:30:02;5.10;;;1.63;;
35969;SDS011;22448;51.298;6.430;2023-09-18T14:32:34;5.20;;;2.10;;
35969;SDS011;22448;51.298;6.430;2023-09-18T14:35:04;6.13;;;1.85;;
35969;SDS011;22448;51.298;6.430;2023-09-18T14:37:35;2.85;;;1.80;;
35969;SDS011;22448;51.298;6.430;2023-09-18T14:40:03;3.42;;;1.83;;
35969;SDS011;22448;51.298;6.430;2023-09-18T14:42:30;2.60;;;1.55;;
35969;SDS011;22448;51.298;6.430;2023-09-18T14:44:58;5.95;;;1.83;;
35969;SDS011;22448;51.298;6.430;2023-09-18T14:47:27;5.35;;;1.60;;
35969;SDS011;22448;51.298;6.430;2023-09-18T14:49:54;7.65;;;1.58;;
35969;SDS011;22448;51.298;6.430;2023-09-18T14:52:22;8.18;;;1.65;;
35969;SDS011;22448;51.298;6.430;2023-09-18T14:54:52;6.75;;;1.60;;
35969;SDS011;22448;51.298;6.430;2023-09-18T14:57:19;5.15;;;2.13;;
35969;SDS011;22448;51.298;6.430;2023-09-18T14:59:47;6.97;;;1.83;;
35969;SDS011;22448;51.298;6.430;2023-09-18T15:02:14;4.65;;;1.65;;
35969;SDS011;22448;51.298;6.430;2023-09-18T15:04:44;8.32;;;1.83;;
35969;SDS011;22448;51.298;6.430;2023-09-18T15:07:12;3.03;;;1.40;;
35969;SDS011;22448;51.298;6.430;2023-09-18T15:09:39;3.63;;;1.65;;
35969;SDS011;22448;51.298;6.430;2023-09-18T15:12:07;4.68;;;1.40;;
35969;SDS011;22448;51.298;6.430;2023-09-18T15:14:35;2.75;;;1.70;;